Sea Hunter — 8PUY — position and weather

sailwx.info

Track history (hours):
 
Tides and Currents Weather Stations Pressure Air Temp Water Temp Dewpoint Dewpoint Depression Visibility Wind Speed Wind Dir Waves Ship Positions

Sea Hunter

Last reported at 2017-Oct-17 16:59 UTC. Time now 2017-Oct-17 17:06 UTC.
Position N 51°47' E 003°21'.

Length 87 m; draft 3.5 m.

Type: Cargo ship. MMSI: 314270000.

Date/timePositionNaut miles runAvg speedWind from/ knotsBaromVisibWave heightAir tempDewpointWater temp
2017-Oct-17 16:59N 51°47' E 003°21'0 0.0
2017-Oct-17 16:05N 51°47' E 003°21'0 0.1
2017-Oct-17 15:56N 51°47' E 003°21'0 0.0
2017-Oct-17 15:29N 51°47' E 003°21'0 0.0
2017-Oct-17 14:53N 51°47' E 003°21'0 0.0
2017-Oct-17 14:29N 51°47' E 003°21'0 0.0
2017-Oct-17 13:14N 51°47' E 003°21'0 0.0
2017-Oct-17 12:53N 51°47' E 003°21'0 0.0
2017-Oct-17 11:47N 51°47' E 003°21'0 0.0
2017-Oct-17 11:29N 51°47' E 003°21'0 0.0
2017-Oct-17 10:44N 51°47' E 003°22'0 0.1
2017-Oct-17 10:23N 51°47' E 003°22'0 0.0
2017-Oct-17 09:59N 51°47' E 003°22'0 0.0
2017-Oct-17 09:26N 51°47' E 003°22'0 0.0
2017-Oct-17 04:47N 51°47' E 003°22'0 0.1
2017-Oct-17 04:23N 51°47' E 003°22'0 0.0
2017-Oct-17 03:56N 51°47' E 003°22'0 0.0
2017-Oct-17 03:11N 51°47' E 003°21'0 0.0
2017-Oct-17 02:50N 51°47' E 003°21'0 0.1
2017-Oct-17 02:29N 51°47' E 003°21'0 0.0
2017-Oct-17 01:59N 51°47' E 003°21'0 0.0
2017-Oct-17 01:29N 51°47' E 003°21'0 0.1
2017-Oct-17 00:56N 51°47' E 003°21'0 0.1
2017-Oct-17 00:29N 51°47' E 003°21'0 0.1
2017-Oct-16 23:50N 51°47' E 003°21'0 0.0
2017-Oct-16 23:23N 51°47' E 003°21'0 0.0
2017-Oct-16 22:47N 51°47' E 003°21'0 0.1
2017-Oct-16 22:29N 51°47' E 003°21'0 0.1
2017-Oct-16 21:59N 51°47' E 003°21'0 0.0
2017-Oct-16 21:26N 51°47' E 003°21'0 0.0
2017-Oct-16 20:59N 51°47' E 003°21'0 0.1
2017-Oct-16 20:08N 51°47' E 003°21'0 3.9
2017-Oct-16 20:00N 51°47' E 003°21'5 9.8
2017-Oct-16 19:30N 51°52' E 003°19'611.4
2017-Oct-16 18:57N 51°59' E 003°19'510.7
2017-Oct-16 18:30N 52°02' E 003°24'811.5
2017-Oct-16 17:49N 52°03' E 003°37'411.5
2017-Oct-16 17:29N 52°03' E 003°43'511.2
2017-Oct-16 17:01N 52°02' E 003°51'510.3
2017-Oct-16 16:30N 52°01' E 003°59'611.8
2017-Oct-16 16:00N 51°58' E 004°08'4 8.4
2017-Oct-16 15:31N 51°55' E 004°13'2 3.5
2017-Oct-16 15:01N 51°54' E 004°14'0 0.0
2017-Oct-16 14:30N 51°54' E 004°14'0 0.0
2017-Oct-16 13:30N 51°54' E 004°14'0 0.0
2017-Oct-16 13:00N 51°54' E 004°14'0 0.0
2017-Oct-16 12:30N 51°54' E 004°14'0 0.0
2017-Oct-16 11:57N 51°54' E 004°14'0 0.0
2017-Oct-16 11:30N 51°54' E 004°14'0 0.0
2017-Oct-16 11:00N 51°54' E 004°14'0 0.1
2017-Oct-16 10:30N 51°54' E 004°14'0 0.1
2017-Oct-16 10:00N 51°54' E 004°14'0 0.0
2017-Oct-16 09:30N 51°54' E 004°14'0 0.0
2017-Oct-16 08:57N 51°54' E 004°14'0 0.0
2017-Oct-16 08:30N 51°54' E 004°14'0 0.0
2017-Oct-16 08:00N 51°54' E 004°14'0 0.0
2017-Oct-16 07:30N 51°54' E 004°14'0 0.1
2017-Oct-16 07:00N 51°54' E 004°14'0 0.0
2017-Oct-16 06:30N 51°54' E 004°14'0 0.0
2017-Oct-16 06:00N 51°54' E 004°14'0 0.0
2017-Oct-16 05:30N 51°54' E 004°14'0 0.0
2017-Oct-16 05:00N 51°54' E 004°14'0 0.1
2017-Oct-16 04:30N 51°54' E 004°14'0 0.0
2017-Oct-16 04:00N 51°54' E 004°14'0 0.0
2017-Oct-16 03:31N 51°54' E 004°14'2 4.4
2017-Oct-16 03:01N 51°56' E 004°12'5 9.4
2017-Oct-16 02:31N 51°58' E 004°06'4 8.6
2017-Oct-16 02:00N 51°60' E 003°60'510.1
2017-Oct-16 01:30N 51°60' E 003°51'4 8.4
2017-Oct-16 01:00N 51°57' E 003°46'1 0.2
2017-Oct-15 17:34N 51°56' E 003°45'0 0.0
2017-Oct-15 17:28N 51°56' E 003°45'0 0.0
2017-Oct-15 16:58N 51°56' E 003°45'0 0.0
2017-Oct-15 16:22N 51°56' E 003°45'0 0.0
2017-Oct-15 15:58N 51°56' E 003°45'0 0.1
2017-Oct-15 15:28N 51°56' E 003°45'0 0.1
2017-Oct-15 14:34N 51°56' E 003°45'0 0.0
2017-Oct-15 13:52N 51°56' E 003°45'0 0.0
2017-Oct-15 13:16N 51°56' E 003°45'0 0.0
2017-Oct-15 12:55N 51°56' E 003°45'0 0.0
2017-Oct-15 11:01N 51°56' E 003°46'0 0.0
2017-Oct-15 10:55N 51°56' E 003°46'0 0.0
2017-Oct-15 10:25N 51°56' E 003°45'0 0.0
2017-Oct-15 09:52N 51°56' E 003°46'0 0.0
2017-Oct-15 09:28N 51°56' E 003°45'0 0.0
2017-Oct-15 08:37N 51°56' E 003°45'0 0.1
2017-Oct-15 08:25N 51°56' E 003°45'0 0.1
2017-Oct-15 07:52N 51°56' E 003°45'0 0.1
2017-Oct-15 07:25N 51°56' E 003°45'0 0.1
2017-Oct-15 06:58N 51°56' E 003°45'0 0.0
2017-Oct-15 06:19N 51°56' E 003°45'0 0.0
2017-Oct-15 05:58N 51°56' E 003°45'0 0.0
2017-Oct-15 05:28N 51°56' E 003°45'0 0.0
2017-Oct-15 04:49N 51°56' E 003°45'0 0.0
2017-Oct-15 04:28N 51°56' E 003°45'0 0.0
2017-Oct-15 03:58N 51°56' E 003°45'0 0.0
2017-Oct-15 03:28N 51°56' E 003°45'0 0.0
2017-Oct-15 02:13N 51°56' E 003°45'0 0.1
2017-Oct-15 01:55N 51°56' E 003°45'0 0.1
2017-Oct-15 01:28N 51°56' E 003°45'0 0.0
2017-Oct-14 19:40N 51°56' E 003°45'0 0.0
2017-Oct-14 19:16N 51°56' E 003°45'0 0.1
2017-Oct-14 18:58N 51°56' E 003°45'0 0.0
2017-Oct-14 17:40N 51°56' E 003°45'0 0.0
2017-Oct-14 15:46N 51°56' E 003°45'0 0.0
2017-Oct-14 14:25N 51°56' E 003°45'0 0.2
2017-Oct-14 13:58N 51°56' E 003°46'0 0.0
2017-Oct-14 07:10N 51°56' E 003°45'0 3.0
2017-Oct-14 07:00N 51°56' E 003°45'5 9.3
2017-Oct-14 06:27N 51°56' E 003°36'4 9.3
2017-Oct-14 05:59N 51°55' E 003°29'4 9.2
2017-Oct-14 05:30N 51°54' E 003°23'5 8.9
2017-Oct-14 05:00N 51°53' E 003°16'30 8.2
2017-Oct-14 01:20N 51°41' E 002°31'3 8.4
2017-Oct-14 01:00N 51°39' E 002°28'4 8.6
2017-Oct-14 00:30N 51°35' E 002°24'4 9.0
2017-Oct-14 00:00N 51°32' E 002°19'5 9.2
2017-Oct-13 23:30N 51°29' E 002°14'5 9.3
2017-Oct-13 23:00N 51°24' E 002°11'5 9.7
2017-Oct-13 22:30N 51°20' E 002°09'510.2
2017-Oct-13 22:00N 51°15' E 002°05'510.4
2017-Oct-13 21:30N 51°12' E 001°59'510.5
2017-Oct-13 21:00N 51°09' E 001°52'510.8
2017-Oct-13 20:31N 51°06' E 001°45'611.3
2017-Oct-13 20:01N 51°02' E 001°38'611.8
2017-Oct-13 19:30N 50°58' E 001°31'1911.2
2017-Oct-13 17:46N 50°41' E 001°17'311.1
2017-Oct-13 17:30N 50°39' E 001°13'6710.8
2017-Oct-13 11:20N 50°10' W 000°21'20 9.7
2017-Oct-13 09:19N 50°01' W 000°48'3 9.0
2017-Oct-13 09:00N 49°59' W 000°52'4 8.4
2017-Oct-13 08:30N 49°57' W 000°57'4 8.1
2017-Oct-13 08:00N 49°55' W 001°03'4 7.6
2017-Oct-13 07:30N 49°53' W 001°08'3 7.0
2017-Oct-13 07:01N 49°53' W 001°14'3 6.7
2017-Oct-13 06:30N 49°53' W 001°19'3 7.0
2017-Oct-13 06:01N 49°53' W 001°24'4 7.5
2017-Oct-13 05:31N 49°53' W 001°30'4 8.2
2017-Oct-13 05:00N 49°53' W 001°36'4 8.8
2017-Oct-13 04:31N 49°53' W 001°43'5 9.6
2017-Oct-13 04:00N 49°53' W 001°51'610.0
2017-Oct-13 03:27N 49°53' W 001°59'4410.4
2017-Oct-12 23:13N 49°43' W 003°05'310.3
2017-Oct-12 22:57N 49°41' W 003°08'810.4
2017-Oct-12 22:11N 49°36' W 003°19'210.1
2017-Oct-12 22:00N 49°35' W 003°21'710.2
2017-Oct-12 21:19N 49°32' W 003°30'610.0
2017-Oct-12 20:41N 49°29' W 003°39'3 9.8
2017-Oct-12 20:25N 49°28' W 003°43'4 9.8
2017-Oct-12 19:58N 49°26' W 003°49'9 9.6
2017-Oct-12 19:04N 49°21' W 004°00'2 9.5
2017-Oct-12 18:50N 49°20' W 004°03'4 9.4
2017-Oct-12 18:24N 49°18' W 004°09'4 9.3
2017-Oct-12 17:59N 49°16' W 004°14'4 9.2
2017-Oct-12 17:30N 49°14' W 004°19'5 9.0
2017-Oct-12 16:57N 49°12' W 004°26'17 8.6
2017-Oct-12 14:59N 49°03' W 004°48'27 8.6
2017-Oct-12 11:53N 48°50' W 005°24'27 9.1
2017-Oct-12 08:58N 48°29' W 005°48'11 9.9
2017-Oct-12 07:53N 48°19' W 005°55'910.2
2017-Oct-12 06:58N 48°11' W 006°01'1010.2
2017-Oct-12 05:58N 48°02' W 006°08'1410.1
2017-Oct-12 04:38N 47°49' W 006°17'710.0
2017-Oct-12 03:54N 47°43' W 006°22'51 9.0
2017-Oct-11 22:13N 46°58' W 006°59'351 8.9
2017-Oct-10 06:35N 41°17' W 008°53'1 9.9
2017-Oct-10 06:30N 41°16' W 008°52'5 9.4
2017-Oct-10 06:00N 41°12' W 008°49'5 9.4
2017-Oct-10 05:31N 41°10' W 008°44'2 3.4
2017-Oct-10 04:58N 41°11' W 008°42'0 0.0
2017-Oct-10 04:28N 41°11' W 008°42'0 0.0
2017-Oct-10 03:58N 41°11' W 008°42'0 0.0
2017-Oct-10 03:28N 41°11' W 008°42'0 0.0
2017-Oct-10 02:58N 41°11' W 008°42'0 0.0
2017-Oct-10 02:28N 41°11' W 008°42'0 0.0
2017-Oct-10 01:58N 41°11' W 008°42'0 0.0
2017-Oct-10 01:28N 41°11' W 008°42'0 0.0
2017-Oct-10 00:58N 41°11' W 008°42'0 0.0
2017-Oct-10 00:28N 41°11' W 008°42'0 0.0
2017-Oct-09 23:58N 41°11' W 008°42'0 0.0
2017-Oct-09 23:28N 41°11' W 008°42'0 0.0
2017-Oct-09 22:58N 41°11' W 008°42'0 0.0
2017-Oct-09 22:28N 41°11' W 008°42'0 0.0
2017-Oct-09 21:58N 41°11' W 008°42'0 0.0
2017-Oct-09 21:28N 41°11' W 008°42'0 0.0
2017-Oct-09 20:58N 41°11' W 008°42'0 0.0
2017-Oct-09 20:28N 41°11' W 008°42'0 0.0
2017-Oct-09 19:58N 41°11' W 008°42'0 0.0
2017-Oct-09 19:28N 41°11' W 008°42'0 0.0
2017-Oct-09 18:58N 41°11' W 008°42'0 0.0
2017-Oct-09 18:28N 41°11' W 008°42'0 0.0
2017-Oct-09 17:58N 41°11' W 008°42'0 0.0
2017-Oct-09 17:28N 41°11' W 008°42'0 0.0
2017-Oct-09 16:58N 41°11' W 008°42'0 0.0
2017-Oct-09 16:28N 41°11' W 008°42'0 0.0
2017-Oct-09 15:58N 41°11' W 008°42'0 0.0
2017-Oct-09 15:28N 41°11' W 008°42'0 0.0
2017-Oct-09 14:58N 41°11' W 008°42'0 0.0
2017-Oct-09 14:28N 41°11' W 008°42'0 0.0
2017-Oct-09 13:58N 41°11' W 008°42'0 0.0
2017-Oct-09 13:28N 41°11' W 008°42'0 0.0
2017-Oct-09 12:58N 41°11' W 008°42'0 0.0
2017-Oct-09 12:28N 41°11' W 008°42'0 0.0
2017-Oct-09 11:58N 41°11' W 008°42'0 0.0
2017-Oct-09 11:28N 41°11' W 008°42'0 0.0
2017-Oct-09 10:58N 41°11' W 008°42'0 0.0
2017-Oct-09 10:28N 41°11' W 008°42'0 0.0
2017-Oct-09 09:58N 41°11' W 008°42'0 0.0
2017-Oct-09 09:28N 41°11' W 008°42'0 0.0
2017-Oct-09 08:58N 41°11' W 008°42'0 0.0
2017-Oct-09 08:28N 41°11' W 008°42'0 0.0
2017-Oct-09 07:58N 41°11' W 008°42'0 0.0
2017-Oct-09 07:28N 41°11' W 008°42'0 0.0
2017-Oct-09 06:58N 41°11' W 008°42'0 0.0
2017-Oct-09 06:28N 41°11' W 008°42'0 0.0
2017-Oct-09 05:58N 41°11' W 008°42'0 0.0
2017-Oct-09 05:28N 41°11' W 008°42'0 0.0
2017-Oct-09 04:58N 41°11' W 008°42'0 0.0
2017-Oct-09 04:28N 41°11' W 008°42'0 0.0
2017-Oct-09 03:58N 41°11' W 008°42'0 0.0
2017-Oct-09 03:28N 41°11' W 008°42'0 0.0
2017-Oct-09 02:58N 41°11' W 008°42'0 0.0
2017-Oct-09 02:28N 41°11' W 008°42'0 0.0
2017-Oct-09 01:58N 41°11' W 008°42'0 0.0
2017-Oct-09 01:28N 41°11' W 008°42'0 0.0
2017-Oct-09 00:58N 41°11' W 008°42'0 0.0
2017-Oct-09 00:28N 41°11' W 008°42'0 0.0
2017-Oct-08 23:58N 41°11' W 008°42'0 0.0
2017-Oct-08 23:28N 41°11' W 008°42'0 0.0
2017-Oct-08 22:58N 41°11' W 008°42'0 0.0
2017-Oct-08 22:28N 41°11' W 008°42'0 0.0
2017-Oct-08 21:58N 41°11' W 008°42'0 0.0
2017-Oct-08 21:28N 41°11' W 008°42'0 0.0
2017-Oct-08 20:58N 41°11' W 008°42'0 0.0
2017-Oct-08 20:28N 41°11' W 008°42'0 0.0
2017-Oct-08 19:58N 41°11' W 008°42'0 0.0
2017-Oct-08 19:28N 41°11' W 008°42'0 0.0
2017-Oct-08 18:58N 41°11' W 008°42'0 0.0
2017-Oct-08 18:28N 41°11' W 008°42'0 0.0
2017-Oct-08 17:58N 41°11' W 008°42'0 0.0
2017-Oct-08 17:28N 41°11' W 008°42'0 0.0
2017-Oct-08 16:56N 41°11' W 008°42'1 2.5
2017-Oct-08 16:30N 41°10' W 008°42'3 5.6
2017-Oct-08 16:00N 41°11' W 008°46'610.9
2017-Oct-08 15:27N 41°16' W 008°51'  
Track history (hours):
 
Tides and Currents Weather Stations Pressure Air Temp Water Temp Dewpoint Dewpoint Depression Visibility Wind Speed Wind Dir Waves Ship Positions

Sea Hunter

Last reported at 2017-Oct-17 16:59 UTC. Time now 2017-Oct-17 17:06 UTC.
Position N 51°47' E 003°21'.

Length 87 m; draft 3.5 m.

Type: Cargo ship. MMSI: 314270000.

Date/timePositionNaut miles runAvg speedWind from/ knotsBaromVisibWave heightAir tempDewpointWater temp
2017-Oct-17 16:59N 51°47' E 003°21'0 0.0
2017-Oct-17 16:05N 51°47' E 003°21'0 0.1
2017-Oct-17 15:56N 51°47' E 003°21'0 0.0
2017-Oct-17 15:29N 51°47' E 003°21'0 0.0
2017-Oct-17 14:53N 51°47' E 003°21'0 0.0
2017-Oct-17 14:29N 51°47' E 003°21'0 0.0
2017-Oct-17 13:14N 51°47' E 003°21'0 0.0
2017-Oct-17 12:53N 51°47' E 003°21'0 0.0
2017-Oct-17 11:47N 51°47' E 003°21'0 0.0
2017-Oct-17 11:29N 51°47' E 003°21'0 0.0
2017-Oct-17 10:44N 51°47' E 003°22'0 0.1
2017-Oct-17 10:23N 51°47' E 003°22'0 0.0
2017-Oct-17 09:59N 51°47' E 003°22'0 0.0
2017-Oct-17 09:26N 51°47' E 003°22'0 0.0
2017-Oct-17 04:47N 51°47' E 003°22'0 0.1
2017-Oct-17 04:23N 51°47' E 003°22'0 0.0
2017-Oct-17 03:56N 51°47' E 003°22'0 0.0
2017-Oct-17 03:11N 51°47' E 003°21'0 0.0
2017-Oct-17 02:50N 51°47' E 003°21'0 0.1
2017-Oct-17 02:29N 51°47' E 003°21'0 0.0
2017-Oct-17 01:59N 51°47' E 003°21'0 0.0
2017-Oct-17 01:29N 51°47' E 003°21'0 0.1
2017-Oct-17 00:56N 51°47' E 003°21'0 0.1
2017-Oct-17 00:29N 51°47' E 003°21'0 0.1
2017-Oct-16 23:50N 51°47' E 003°21'0 0.0
2017-Oct-16 23:23N 51°47' E 003°21'0 0.0
2017-Oct-16 22:47N 51°47' E 003°21'0 0.1
2017-Oct-16 22:29N 51°47' E 003°21'0 0.1
2017-Oct-16 21:59N 51°47' E 003°21'0 0.0
2017-Oct-16 21:26N 51°47' E 003°21'0 0.0
2017-Oct-16 20:59N 51°47' E 003°21'0 0.1
2017-Oct-16 20:08N 51°47' E 003°21'0 3.9
2017-Oct-16 20:00N 51°47' E 003°21'5 9.8
2017-Oct-16 19:30N 51°52' E 003°19'611.4
2017-Oct-16 18:57N 51°59' E 003°19'510.7
2017-Oct-16 18:30N 52°02' E 003°24'811.5
2017-Oct-16 17:49N 52°03' E 003°37'411.5
2017-Oct-16 17:29N 52°03' E 003°43'511.2
2017-Oct-16 17:01N 52°02' E 003°51'510.3
2017-Oct-16 16:30N 52°01' E 003°59'611.8
2017-Oct-16 16:00N 51°58' E 004°08'4 8.4
2017-Oct-16 15:31N 51°55' E 004°13'2 3.5
2017-Oct-16 15:01N 51°54' E 004°14'0 0.0
2017-Oct-16 14:30N 51°54' E 004°14'0 0.0
2017-Oct-16 13:30N 51°54' E 004°14'0 0.0
2017-Oct-16 13:00N 51°54' E 004°14'0 0.0
2017-Oct-16 12:30N 51°54' E 004°14'0 0.0
2017-Oct-16 11:57N 51°54' E 004°14'0 0.0
2017-Oct-16 11:30N 51°54' E 004°14'0 0.0
2017-Oct-16 11:00N 51°54' E 004°14'0 0.1
2017-Oct-16 10:30N 51°54' E 004°14'0 0.1
2017-Oct-16 10:00N 51°54' E 004°14'0 0.0
2017-Oct-16 09:30N 51°54' E 004°14'0 0.0
2017-Oct-16 08:57N 51°54' E 004°14'0 0.0
2017-Oct-16 08:30N 51°54' E 004°14'0 0.0
2017-Oct-16 08:00N 51°54' E 004°14'0 0.0
2017-Oct-16 07:30N 51°54' E 004°14'0 0.1
2017-Oct-16 07:00N 51°54' E 004°14'0 0.0
2017-Oct-16 06:30N 51°54' E 004°14'0 0.0
2017-Oct-16 06:00N 51°54' E 004°14'0 0.0
2017-Oct-16 05:30N 51°54' E 004°14'0 0.0
2017-Oct-16 05:00N 51°54' E 004°14'0 0.1
2017-Oct-16 04:30N 51°54' E 004°14'0 0.0
2017-Oct-16 04:00N 51°54' E 004°14'0 0.0
2017-Oct-16 03:31N 51°54' E 004°14'2 4.4
2017-Oct-16 03:01N 51°56' E 004°12'5 9.4
2017-Oct-16 02:31N 51°58' E 004°06'4 8.6
2017-Oct-16 02:00N 51°60' E 003°60'510.1
2017-Oct-16 01:30N 51°60' E 003°51'4 8.4
2017-Oct-16 01:00N 51°57' E 003°46'1 0.2
2017-Oct-15 17:34N 51°56' E 003°45'0 0.0
2017-Oct-15 17:28N 51°56' E 003°45'0 0.0
2017-Oct-15 16:58N 51°56' E 003°45'0 0.0
2017-Oct-15 16:22N 51°56' E 003°45'0 0.0
2017-Oct-15 15:58N 51°56' E 003°45'0 0.1
2017-Oct-15 15:28N 51°56' E 003°45'0 0.1
2017-Oct-15 14:34N 51°56' E 003°45'0 0.0
2017-Oct-15 13:52N 51°56' E 003°45'0 0.0
2017-Oct-15 13:16N 51°56' E 003°45'0 0.0
2017-Oct-15 12:55N 51°56' E 003°45'0 0.0
2017-Oct-15 11:01N 51°56' E 003°46'0 0.0
2017-Oct-15 10:55N 51°56' E 003°46'0 0.0
2017-Oct-15 10:25N 51°56' E 003°45'0 0.0
2017-Oct-15 09:52N 51°56' E 003°46'0 0.0
2017-Oct-15 09:28N 51°56' E 003°45'0 0.0
2017-Oct-15 08:37N 51°56' E 003°45'0 0.1
2017-Oct-15 08:25N 51°56' E 003°45'0 0.1
2017-Oct-15 07:52N 51°56' E 003°45'0 0.1
2017-Oct-15 07:25N 51°56' E 003°45'0 0.1
2017-Oct-15 06:58N 51°56' E 003°45'0 0.0
2017-Oct-15 06:19N 51°56' E 003°45'0 0.0
2017-Oct-15 05:58N 51°56' E 003°45'0 0.0
2017-Oct-15 05:28N 51°56' E 003°45'0 0.0
2017-Oct-15 04:49N 51°56' E 003°45'0 0.0
2017-Oct-15 04:28N 51°56' E 003°45'0 0.0
2017-Oct-15 03:58N 51°56' E 003°45'0 0.0
2017-Oct-15 03:28N 51°56' E 003°45'0 0.0
2017-Oct-15 02:13N 51°56' E 003°45'0 0.1
2017-Oct-15 01:55N 51°56' E 003°45'0 0.1
2017-Oct-15 01:28N 51°56' E 003°45'0 0.0
2017-Oct-14 19:40N 51°56' E 003°45'0 0.0
2017-Oct-14 19:16N 51°56' E 003°45'0 0.1
2017-Oct-14 18:58N 51°56' E 003°45'0 0.0
2017-Oct-14 17:40N 51°56' E 003°45'0 0.0
2017-Oct-14 15:46N 51°56' E 003°45'0 0.0
2017-Oct-14 14:25N 51°56' E 003°45'0 0.2
2017-Oct-14 13:58N 51°56' E 003°46'0 0.0
2017-Oct-14 07:10N 51°56' E 003°45'0 3.0
2017-Oct-14 07:00N 51°56' E 003°45'5 9.3
2017-Oct-14 06:27N 51°56' E 003°36'4 9.3
2017-Oct-14 05:59N 51°55' E 003°29'4 9.2
2017-Oct-14 05:30N 51°54' E 003°23'5 8.9
2017-Oct-14 05:00N 51°53' E 003°16'30 8.2
2017-Oct-14 01:20N 51°41' E 002°31'3 8.4
2017-Oct-14 01:00N 51°39' E 002°28'4 8.6
2017-Oct-14 00:30N 51°35' E 002°24'4 9.0
2017-Oct-14 00:00N 51°32' E 002°19'5 9.2
2017-Oct-13 23:30N 51°29' E 002°14'5 9.3
2017-Oct-13 23:00N 51°24' E 002°11'5 9.7
2017-Oct-13 22:30N 51°20' E 002°09'510.2
2017-Oct-13 22:00N 51°15' E 002°05'510.4
2017-Oct-13 21:30N 51°12' E 001°59'510.5
2017-Oct-13 21:00N 51°09' E 001°52'510.8
2017-Oct-13 20:31N 51°06' E 001°45'611.3
2017-Oct-13 20:01N 51°02' E 001°38'611.8
2017-Oct-13 19:30N 50°58' E 001°31'1911.2
2017-Oct-13 17:46N 50°41' E 001°17'311.1
2017-Oct-13 17:30N 50°39' E 001°13'6710.8
2017-Oct-13 11:20N 50°10' W 000°21'20 9.7
2017-Oct-13 09:19N 50°01' W 000°48'3 9.0
2017-Oct-13 09:00N 49°59' W 000°52'4 8.4
2017-Oct-13 08:30N 49°57' W 000°57'4 8.1
2017-Oct-13 08:00N 49°55' W 001°03'4 7.6
2017-Oct-13 07:30N 49°53' W 001°08'3 7.0
2017-Oct-13 07:01N 49°53' W 001°14'3 6.7
2017-Oct-13 06:30N 49°53' W 001°19'3 7.0
2017-Oct-13 06:01N 49°53' W 001°24'4 7.5
2017-Oct-13 05:31N 49°53' W 001°30'4 8.2
2017-Oct-13 05:00N 49°53' W 001°36'4 8.8
2017-Oct-13 04:31N 49°53' W 001°43'5 9.6
2017-Oct-13 04:00N 49°53' W 001°51'610.0
2017-Oct-13 03:27N 49°53' W 001°59'4410.4
2017-Oct-12 23:13N 49°43' W 003°05'310.3
2017-Oct-12 22:57N 49°41' W 003°08'810.4
2017-Oct-12 22:11N 49°36' W 003°19'210.1
2017-Oct-12 22:00N 49°35' W 003°21'710.2
2017-Oct-12 21:19N 49°32' W 003°30'610.0
2017-Oct-12 20:41N 49°29' W 003°39'3 9.8
2017-Oct-12 20:25N 49°28' W 003°43'4 9.8
2017-Oct-12 19:58N 49°26' W 003°49'9 9.6
2017-Oct-12 19:04N 49°21' W 004°00'2 9.5
2017-Oct-12 18:50N 49°20' W 004°03'4 9.4
2017-Oct-12 18:24N 49°18' W 004°09'4 9.3
2017-Oct-12 17:59N 49°16' W 004°14'4 9.2
2017-Oct-12 17:30N 49°14' W 004°19'5 9.0
2017-Oct-12 16:57N 49°12' W 004°26'17 8.6
2017-Oct-12 14:59N 49°03' W 004°48'27 8.6
2017-Oct-12 11:53N 48°50' W 005°24'27 9.1
2017-Oct-12 08:58N 48°29' W 005°48'11 9.9
2017-Oct-12 07:53N 48°19' W 005°55'910.2
2017-Oct-12 06:58N 48°11' W 006°01'1010.2
2017-Oct-12 05:58N 48°02' W 006°08'1410.1
2017-Oct-12 04:38N 47°49' W 006°17'710.0
2017-Oct-12 03:54N 47°43' W 006°22'51 9.0
2017-Oct-11 22:13N 46°58' W 006°59'351 8.9
2017-Oct-10 06:35N 41°17' W 008°53'1 9.9
2017-Oct-10 06:30N 41°16' W 008°52'5 9.4
2017-Oct-10 06:00N 41°12' W 008°49'5 9.4
2017-Oct-10 05:31N 41°10' W 008°44'2 3.4
2017-Oct-10 04:58N 41°11' W 008°42'0 0.0
2017-Oct-10 04:28N 41°11' W 008°42'0 0.0
2017-Oct-10 03:58N 41°11' W 008°42'0 0.0
2017-Oct-10 03:28N 41°11' W 008°42'0 0.0
2017-Oct-10 02:58N 41°11' W 008°42'0 0.0
2017-Oct-10 02:28N 41°11' W 008°42'0 0.0
2017-Oct-10 01:58N 41°11' W 008°42'0 0.0
2017-Oct-10 01:28N 41°11' W 008°42'0 0.0
2017-Oct-10 00:58N 41°11' W 008°42'0 0.0
2017-Oct-10 00:28N 41°11' W 008°42'0 0.0
2017-Oct-09 23:58N 41°11' W 008°42'0 0.0
2017-Oct-09 23:28N 41°11' W 008°42'0 0.0
2017-Oct-09 22:58N 41°11' W 008°42'0 0.0
2017-Oct-09 22:28N 41°11' W 008°42'0 0.0
2017-Oct-09 21:58N 41°11' W 008°42'0 0.0
2017-Oct-09 21:28N 41°11' W 008°42'0 0.0
2017-Oct-09 20:58N 41°11' W 008°42'0 0.0
2017-Oct-09 20:28N 41°11' W 008°42'0 0.0
2017-Oct-09 19:58N 41°11' W 008°42'0 0.0
2017-Oct-09 19:28N 41°11' W 008°42'0 0.0
2017-Oct-09 18:58N 41°11' W 008°42'0 0.0
2017-Oct-09 18:28N 41°11' W 008°42'0 0.0
2017-Oct-09 17:58N 41°11' W 008°42'0 0.0
2017-Oct-09 17:28N 41°11' W 008°42'0 0.0
2017-Oct-09 16:58N 41°11' W 008°42'0 0.0
2017-Oct-09 16:28N 41°11' W 008°42'0 0.0
2017-Oct-09 15:58N 41°11' W 008°42'0 0.0
2017-Oct-09 15:28N 41°11' W 008°42'0 0.0
2017-Oct-09 14:58N 41°11' W 008°42'0 0.0
2017-Oct-09 14:28N 41°11' W 008°42'0 0.0
2017-Oct-09 13:58N 41°11' W 008°42'0 0.0
2017-Oct-09 13:28N 41°11' W 008°42'0 0.0
2017-Oct-09 12:58N 41°11' W 008°42'0 0.0
2017-Oct-09 12:28N 41°11' W 008°42'0 0.0
2017-Oct-09 11:58N 41°11' W 008°42'0 0.0
2017-Oct-09 11:28N 41°11' W 008°42'0 0.0
2017-Oct-09 10:58N 41°11' W 008°42'0 0.0
2017-Oct-09 10:28N 41°11' W 008°42'0 0.0
2017-Oct-09 09:58N 41°11' W 008°42'0 0.0
2017-Oct-09 09:28N 41°11' W 008°42'0 0.0
2017-Oct-09 08:58N 41°11' W 008°42'0 0.0
2017-Oct-09 08:28N 41°11' W 008°42'0 0.0
2017-Oct-09 07:58N 41°11' W 008°42'0 0.0
2017-Oct-09 07:28N 41°11' W 008°42'0 0.0
2017-Oct-09 06:58N 41°11' W 008°42'0 0.0
2017-Oct-09 06:28N 41°11' W 008°42'0 0.0
2017-Oct-09 05:58N 41°11' W 008°42'0 0.0
2017-Oct-09 05:28N 41°11' W 008°42'0 0.0
2017-Oct-09 04:58N 41°11' W 008°42'0 0.0
2017-Oct-09 04:28N 41°11' W 008°42'0 0.0
2017-Oct-09 03:58N 41°11' W 008°42'0 0.0
2017-Oct-09 03:28N 41°11' W 008°42'0 0.0
2017-Oct-09 02:58N 41°11' W 008°42'0 0.0
2017-Oct-09 02:28N 41°11' W 008°42'0 0.0
2017-Oct-09 01:58N 41°11' W 008°42'0 0.0
2017-Oct-09 01:28N 41°11' W 008°42'0 0.0
2017-Oct-09 00:58N 41°11' W 008°42'0 0.0
2017-Oct-09 00:28N 41°11' W 008°42'0 0.0
2017-Oct-08 23:58N 41°11' W 008°42'0 0.0
2017-Oct-08 23:28N 41°11' W 008°42'0 0.0
2017-Oct-08 22:58N 41°11' W 008°42'0 0.0
2017-Oct-08 22:28N 41°11' W 008°42'0 0.0
2017-Oct-08 21:58N 41°11' W 008°42'0 0.0
2017-Oct-08 21:28N 41°11' W 008°42'0 0.0
2017-Oct-08 20:58N 41°11' W 008°42'0 0.0
2017-Oct-08 20:28N 41°11' W 008°42'0 0.0
2017-Oct-08 19:58N 41°11' W 008°42'0 0.0
2017-Oct-08 19:28N 41°11' W 008°42'0 0.0
2017-Oct-08 18:58N 41°11' W 008°42'0 0.0
2017-Oct-08 18:28N 41°11' W 008°42'0 0.0
2017-Oct-08 17:58N 41°11' W 008°42'0 0.0
2017-Oct-08 17:28N 41°11' W 008°42'0 0.0
2017-Oct-08 16:56N 41°11' W 008°42'1 2.5
2017-Oct-08 16:30N 41°10' W 008°42'3 5.6
2017-Oct-08 16:00N 41°11' W 008°46'610.9
2017-Oct-08 15:27N 41°16' W 008°51'  

Dump ship's entire track history